createdAt,value
2022-10-02T00:02:18.822Z,2.60
2022-10-02T00:04:54.099Z,3.20
2022-10-02T00:07:27.612Z,3.23
2022-10-02T00:09:59.605Z,3.30
2022-10-02T00:12:32.119Z,3.10
2022-10-02T00:15:07.570Z,3.30
2022-10-02T00:17:40.540Z,3.43
2022-10-02T00:20:14.652Z,2.40
2022-10-02T00:22:51.928Z,3.00
2022-10-02T00:25:27.666Z,2.53
2022-10-02T00:28:13.948Z,2.37
2022-10-02T00:31:01.779Z,2.93
2022-10-02T00:33:39.753Z,3.40
2022-10-02T00:36:21.996Z,3.10
2022-10-02T00:38:59.876Z,3.47
2022-10-02T00:41:52.283Z,3.07
2022-10-02T00:44:35.893Z,2.90
2022-10-02T00:47:14.056Z,2.97
2022-10-02T00:49:58.744Z,2.47
2022-10-02T00:52:41.792Z,3.30
2022-10-02T00:55:37.406Z,2.53
2022-10-02T00:58:21.991Z,3.03
2022-10-02T01:01:03.593Z,3.90
2022-10-02T01:03:38.720Z,3.17
2022-10-02T01:06:07.676Z,2.73
2022-10-02T01:08:37.726Z,2.17
2022-10-02T01:11:08.583Z,2.33
2022-10-02T01:13:36.966Z,3.43
2022-10-02T01:16:11.856Z,3.70
2022-10-02T01:18:40.141Z,3.37
2022-10-02T01:21:17.427Z,2.80
2022-10-02T01:23:52.287Z,2.40
2022-10-02T01:26:21.944Z,3.97
2022-10-02T01:28:50.674Z,3.60
2022-10-02T01:31:19.258Z,3.03
2022-10-02T01:33:49.980Z,2.53
2022-10-02T01:36:18.505Z,3.17
2022-10-02T01:38:49.072Z,3.03
2022-10-02T01:41:17.172Z,2.93
2022-10-02T01:43:49.582Z,3.00
2022-10-02T01:46:35.365Z,2.30
2022-10-02T01:49:54.021Z,3.23
2022-10-02T01:52:38.495Z,2.37
2022-10-02T01:55:23.696Z,2.77
2022-10-02T01:58:01.163Z,2.50
2022-10-02T02:00:40.037Z,2.67
2022-10-02T02:03:17.547Z,1.93
2022-10-02T02:05:51.476Z,2.13
2022-10-02T02:08:29.925Z,3.10
2022-10-02T02:11:06.263Z,2.20
2022-10-02T02:13:42.455Z,2.53
2022-10-02T02:16:20.688Z,2.70
2022-10-02T02:18:55.190Z,2.33
2022-10-02T02:21:28.952Z,1.70
2022-10-02T02:23:59.727Z,2.93
2022-10-02T02:26:30.070Z,2.03
2022-10-02T02:29:03.361Z,2.47
2022-10-02T02:31:38.706Z,2.50
2022-10-02T02:34:11.286Z,3.30
2022-10-02T02:36:44.327Z,2.67
2022-10-02T02:39:17.845Z,3.17
2022-10-02T02:41:49.566Z,2.97
2022-10-02T02:44:24.160Z,2.90
2022-10-02T02:47:06.845Z,2.47
2022-10-02T02:49:44.157Z,2.40
2022-10-02T02:52:16.690Z,3.80
2022-10-02T02:54:48.957Z,3.23
2022-10-02T02:57:23.017Z,3.63
2022-10-02T02:59:53.706Z,3.30
2022-10-02T03:02:23.425Z,3.10
2022-10-02T03:04:51.494Z,3.10
2022-10-02T03:07:19.741Z,2.60
2022-10-02T03:09:56.361Z,2.70
2022-10-02T03:12:36.801Z,2.33
2022-10-02T03:15:26.607Z,1.80
2022-10-02T03:18:14.053Z,1.90
2022-10-02T03:20:46.504Z,3.00
2022-10-02T03:23:24.388Z,2.27
2022-10-02T03:26:00.108Z,2.17
2022-10-02T03:28:54.401Z,2.00
2022-10-02T03:31:22.956Z,3.77
2022-10-02T03:33:53.805Z,1.87
2022-10-02T03:36:25.026Z,1.70
2022-10-02T03:39:19.798Z,1.87
2022-10-02T03:41:43.905Z,2.17
2022-10-02T03:44:11.944Z,1.93
2022-10-02T03:46:40.289Z,1.80
2022-10-02T03:49:10.013Z,1.90
2022-10-02T03:51:38.110Z,1.80
2022-10-02T03:54:14.185Z,1.50
2022-10-02T03:56:47.863Z,2.10
2022-10-02T03:59:31.439Z,1.60
2022-10-02T04:02:03.697Z,1.60
2022-10-02T04:04:41.669Z,1.50
2022-10-02T04:07:17.535Z,1.37
2022-10-02T04:09:50.723Z,2.17
2022-10-02T04:12:23.895Z,1.83
2022-10-02T04:14:57.205Z,1.30
2022-10-02T04:17:30.010Z,1.57
2022-10-02T04:20:03.725Z,1.20
2022-10-02T04:22:38.063Z,1.83
2022-10-02T04:25:11.541Z,1.77
2022-10-02T04:27:43.362Z,1.53
2022-10-02T04:30:15.332Z,1.90
2022-10-02T04:32:43.487Z,1.67
2022-10-02T04:35:17.825Z,1.23
2022-10-02T04:38:21.559Z,1.43
2022-10-02T04:41:07.420Z,1.97
2022-10-02T04:43:47.892Z,1.83
2022-10-02T04:46:37.139Z,1.73
2022-10-02T04:49:27.383Z,1.27
2022-10-02T04:52:18.073Z,1.60
2022-10-02T04:55:03.505Z,1.10
2022-10-02T04:57:56.274Z,1.63
2022-10-02T05:00:26.861Z,1.57
2022-10-02T05:03:20.636Z,1.53
2022-10-02T05:06:07.617Z,1.37
2022-10-02T05:09:08.216Z,1.40
2022-10-02T05:12:02.920Z,1.10
2022-10-02T05:14:55.257Z,1.13
2022-10-02T05:17:38.527Z,1.00
2022-10-02T05:20:25.008Z,1.27
2022-10-02T05:23:06.381Z,1.30
2022-10-02T05:25:55.984Z,1.10
2022-10-02T05:28:43.056Z,0.90
2022-10-02T05:31:22.227Z,1.10
2022-10-02T05:34:10.949Z,0.97
2022-10-02T05:37:09.417Z,0.90
2022-10-02T05:39:45.689Z,1.20
2022-10-02T05:42:24.543Z,0.90
2022-10-02T05:44:57.421Z,1.63
2022-10-02T05:47:31.215Z,1.20
2022-10-02T05:50:04.230Z,1.20
2022-10-02T05:52:38.368Z,0.93
2022-10-02T05:55:17.907Z,1.20
2022-10-02T05:57:52.307Z,1.00
2022-10-02T06:00:31.299Z,2.17
2022-10-02T06:03:11.296Z,1.57
2022-10-02T06:05:48.288Z,1.30
2022-10-02T06:08:21.364Z,1.93
2022-10-02T06:10:53.502Z,1.70
2022-10-02T06:13:26.435Z,1.07
2022-10-02T06:16:10.860Z,1.20
2022-10-02T06:18:42.838Z,0.83
2022-10-02T06:21:24.622Z,1.30
2022-10-02T06:23:57.642Z,0.83
2022-10-02T06:26:30.167Z,0.80
2022-10-02T06:29:03.197Z,1.90
2022-10-02T06:31:39.317Z,0.80
2022-10-02T06:34:11.723Z,0.80
2022-10-02T06:37:00.205Z,0.70
2022-10-02T06:39:40.079Z,1.00
2022-10-02T06:42:18.827Z,0.60
2022-10-02T06:44:58.614Z,0.80
2022-10-02T06:47:40.549Z,0.83
2022-10-02T06:50:24.343Z,0.70
2022-10-02T06:52:59.424Z,1.00
2022-10-02T06:55:45.097Z,0.80
2022-10-02T06:58:43.240Z,0.80
2022-10-02T07:01:22.890Z,0.60
2022-10-02T07:04:17.460Z,0.90
2022-10-02T07:06:58.926Z,0.83
2022-10-02T07:10:02.101Z,0.90
2022-10-02T07:12:54.092Z,0.80
2022-10-02T07:15:48.557Z,0.70
2022-10-02T07:18:33.993Z,0.60
2022-10-02T07:21:10.869Z,1.00
2022-10-02T07:23:47.573Z,0.70
2022-10-02T07:26:38.992Z,0.83
2022-10-02T07:29:17.903Z,0.60
2022-10-02T07:31:58.335Z,0.50
2022-10-02T07:34:41.845Z,0.63
2022-10-02T07:37:18.803Z,0.60
2022-10-02T07:40:06.548Z,0.60
2022-10-02T07:42:55.697Z,0.90
2022-10-02T07:45:34.957Z,0.60
2022-10-02T07:48:36.111Z,0.57
2022-10-02T07:51:36.172Z,0.57
2022-10-02T07:54:18.159Z,0.60
2022-10-02T07:56:49.057Z,0.50
2022-10-02T07:59:18.841Z,0.53
2022-10-02T08:01:48.872Z,0.50
2022-10-02T08:04:20.115Z,0.43
2022-10-02T08:06:52.499Z,0.40
2022-10-02T08:09:25.525Z,0.30
2022-10-02T08:11:57.985Z,0.40
2022-10-02T08:14:32.911Z,0.50
2022-10-02T08:17:12.118Z,0.40
2022-10-02T08:19:44.251Z,0.50
2022-10-02T08:22:19.003Z,0.53
2022-10-02T08:24:50.309Z,0.63
2022-10-02T08:27:23.776Z,0.57
2022-10-02T08:29:57.064Z,0.60
2022-10-02T08:32:34.520Z,0.60
2022-10-02T08:35:06.571Z,0.60
2022-10-02T08:37:46.169Z,0.50
2022-10-02T08:40:57.562Z,1.00
2022-10-02T08:43:49.074Z,0.63
2022-10-02T08:46:59.438Z,0.70
2022-10-02T08:49:48.446Z,0.63
2022-10-02T08:53:05.538Z,0.50
2022-10-02T08:55:50.695Z,0.50
2022-10-02T08:58:59.289Z,0.60
2022-10-02T09:01:50.419Z,1.20
2022-10-02T09:05:01.288Z,0.50
2022-10-02T09:08:08.968Z,0.50
2022-10-02T09:11:05.173Z,0.80
2022-10-02T09:14:11.185Z,0.50
2022-10-02T09:17:12.727Z,2.07
2022-10-02T09:19:49.787Z,1.03
2022-10-02T09:22:50.598Z,0.40
2022-10-02T09:25:37.335Z,0.87
2022-10-02T09:28:49.823Z,0.50
2022-10-02T09:31:47.554Z,0.60
2022-10-02T09:34:53.644Z,0.60
2022-10-02T09:37:53.393Z,0.70
2022-10-02T09:40:55.119Z,0.70
2022-10-02T09:44:03.557Z,0.60
2022-10-02T09:47:01.469Z,0.80
2022-10-02T09:49:53.071Z,0.60
2022-10-02T09:53:01.679Z,0.60
2022-10-02T09:55:57.981Z,0.70
2022-10-02T09:59:09.857Z,0.77
2022-10-02T10:02:14.256Z,0.77
2022-10-02T10:05:11.374Z,0.67
2022-10-02T10:08:15.559Z,0.50
2022-10-02T10:11:21.615Z,0.40
2022-10-02T10:14:24.938Z,0.60
2022-10-02T10:17:23.408Z,0.90
2022-10-02T10:20:36.795Z,0.50
2022-10-02T10:23:51.409Z,0.60
2022-10-02T10:26:53.393Z,0.57
2022-10-02T10:29:51.347Z,0.87
2022-10-02T10:33:05.024Z,0.70
2022-10-02T10:36:01.612Z,0.60
2022-10-02T10:38:52.335Z,0.73
2022-10-02T10:41:51.498Z,0.60
2022-10-02T10:44:46.739Z,0.60
2022-10-02T10:47:33.437Z,0.67
2022-10-02T10:50:25.228Z,0.70
2022-10-02T10:53:30.193Z,0.80
2022-10-02T10:56:19.433Z,0.60
2022-10-02T10:59:25.645Z,0.60
2022-10-02T11:02:13.920Z,0.87
2022-10-02T11:05:04.599Z,0.60
2022-10-02T11:07:54.868Z,0.50
2022-10-02T11:10:36.051Z,0.60
2022-10-02T11:13:33.175Z,0.90
2022-10-02T11:16:44.495Z,0.60
2022-10-02T11:19:41.234Z,1.27
2022-10-02T11:22:24.989Z,0.80
2022-10-02T11:25:22.025Z,1.00
2022-10-02T11:28:25.168Z,0.80
2022-10-02T11:31:05.394Z,0.70
2022-10-02T11:34:13.310Z,0.63
2022-10-02T11:37:05.697Z,0.80
2022-10-02T11:39:57.276Z,0.70
2022-10-02T11:42:48.426Z,0.80
2022-10-02T11:45:37.193Z,0.90
2022-10-02T11:48:24.104Z,0.83
2022-10-02T11:51:17.691Z,0.87
2022-10-02T11:54:05.959Z,1.07
2022-10-02T11:57:01.729Z,0.80
2022-10-02T12:00:05.788Z,0.70
2022-10-02T12:02:39.908Z,0.87
2022-10-02T12:05:27.637Z,0.80
2022-10-02T12:08:04.946Z,0.70
2022-10-02T12:10:44.871Z,0.70
2022-10-02T12:13:35.077Z,0.70
2022-10-02T12:16:11.477Z,1.00
2022-10-02T12:18:51.050Z,0.90
2022-10-02T12:21:48.500Z,2.73
2022-10-02T12:24:38.419Z,1.30
2022-10-02T12:27:15.755Z,1.07
2022-10-02T12:30:04.187Z,0.67
2022-10-02T12:32:54.703Z,0.80
2022-10-02T12:35:37.990Z,0.90
2022-10-02T12:38:19.707Z,1.10
2022-10-02T12:40:58.230Z,0.90
2022-10-02T12:44:03.196Z,0.70
2022-10-02T12:47:04.852Z,0.80
2022-10-02T12:49:47.613Z,1.07
2022-10-02T12:52:55.359Z,0.90
2022-10-02T12:56:01.468Z,0.77
2022-10-02T12:58:38.765Z,0.73
2022-10-02T13:01:41.706Z,0.97
2022-10-02T13:04:49.076Z,1.20
2022-10-02T13:08:01.761Z,0.90
2022-10-02T13:10:38.063Z,0.70
2022-10-02T13:13:36.194Z,0.70
2022-10-02T13:16:13.038Z,0.93
2022-10-02T13:18:57.141Z,0.90
2022-10-02T13:21:33.119Z,0.70
2022-10-02T13:24:15.985Z,0.70
2022-10-02T13:26:51.949Z,0.60
2022-10-02T13:29:34.564Z,0.87
2022-10-02T13:32:27.045Z,0.80
2022-10-02T13:35:16.084Z,0.80
2022-10-02T13:37:55.408Z,0.93
2022-10-02T13:40:31.133Z,1.77
2022-10-02T13:43:23.025Z,0.90
2022-10-02T13:46:01.747Z,1.00
2022-10-02T13:48:42.845Z,1.17
2022-10-02T13:51:20.468Z,1.17
2022-10-02T13:54:07.798Z,0.80
2022-10-02T13:56:51.305Z,1.00
2022-10-02T13:59:43.915Z,1.10
2022-10-02T14:02:34.454Z,1.20
2022-10-02T14:05:11.297Z,1.00
2022-10-02T14:07:57.881Z,1.20
2022-10-02T14:10:40.855Z,1.10
2022-10-02T14:13:27.012Z,1.40
2022-10-02T14:16:08.618Z,1.07
2022-10-02T14:18:51.558Z,1.00
2022-10-02T14:21:28.639Z,0.90
2022-10-02T14:24:48.306Z,1.00
2022-10-02T14:27:24.827Z,1.20
2022-10-02T14:30:01.238Z,1.00
2022-10-02T14:32:45.906Z,2.03
2022-10-02T14:35:43.786Z,1.33
2022-10-02T14:38:25.196Z,1.10
2022-10-02T14:40:56.416Z,1.23
2022-10-02T14:43:39.637Z,1.13
2022-10-02T14:46:22.340Z,1.40
2022-10-02T14:49:12.426Z,1.50
2022-10-02T14:52:02.306Z,1.27
2022-10-02T14:54:44.137Z,1.10
2022-10-02T14:57:45.135Z,2.47
2022-10-02T15:00:18.708Z,1.60
2022-10-02T15:03:27.529Z,1.07
2022-10-02T15:06:05.207Z,1.20
2022-10-02T15:08:38.735Z,1.23
2022-10-02T15:11:19.372Z,1.70
2022-10-02T15:13:57.758Z,1.17
2022-10-02T15:16:53.752Z,1.23
2022-10-02T15:19:28.173Z,1.20
2022-10-02T15:22:00.832Z,1.10
2022-10-02T15:24:32.601Z,1.30
2022-10-02T15:27:19.828Z,1.00
2022-10-02T15:30:13.288Z,0.93
2022-10-02T15:32:54.013Z,1.93
2022-10-02T15:35:32.267Z,1.90
2022-10-02T15:38:34.815Z,1.83
2022-10-02T15:41:33.393Z,1.50
2022-10-02T15:44:10.049Z,1.60
2022-10-02T15:46:50.382Z,2.03
2022-10-02T15:49:33.991Z,1.80
2022-10-02T15:52:10.202Z,1.40
2022-10-02T15:54:55.420Z,1.30
2022-10-02T15:57:41.258Z,1.40
2022-10-02T16:00:15.536Z,1.60
2022-10-02T16:03:02.758Z,1.47
2022-10-02T16:05:53.178Z,1.60
2022-10-02T16:08:57.185Z,1.60
2022-10-02T16:12:05.391Z,1.93
2022-10-02T16:14:42.932Z,1.37
2022-10-02T16:17:30.772Z,1.90
2022-10-02T16:20:31.527Z,1.40
2022-10-02T16:23:22.779Z,2.10
2022-10-02T16:26:02.967Z,2.00
2022-10-02T16:28:46.793Z,1.97
2022-10-02T16:31:35.338Z,1.73
2022-10-02T16:34:14.276Z,1.90
2022-10-02T16:36:52.199Z,1.73
2022-10-02T16:39:46.292Z,1.60
2022-10-02T16:42:22.092Z,2.00
2022-10-02T16:45:17.780Z,1.90
2022-10-02T16:47:50.418Z,1.87
2022-10-02T16:50:24.864Z,1.80
2022-10-02T16:53:02.363Z,1.60
2022-10-02T16:55:36.473Z,2.00
2022-10-02T16:58:14.167Z,2.43
2022-10-02T17:00:54.411Z,3.00
2022-10-02T17:03:31.531Z,2.67
2022-10-02T17:06:06.517Z,3.20
2022-10-02T17:08:42.386Z,3.07
2022-10-02T17:11:20.356Z,2.17
2022-10-02T17:14:06.476Z,3.27
2022-10-02T17:16:41.145Z,4.47
2022-10-02T17:19:22.334Z,3.60
2022-10-02T17:21:54.521Z,3.57
2022-10-02T17:24:48.649Z,3.90
2022-10-02T17:27:26.659Z,3.10
2022-10-02T17:30:03.742Z,2.93
2022-10-02T17:32:38.632Z,3.30
2022-10-02T17:35:17.225Z,2.50
2022-10-02T17:38:21.262Z,5.20
2022-10-02T17:40:59.703Z,3.13
2022-10-02T17:43:37.384Z,3.43
2022-10-02T17:46:29.201Z,3.57
2022-10-02T17:49:03.778Z,3.53
2022-10-02T17:51:58.752Z,2.87
2022-10-02T17:55:00.424Z,4.00
2022-10-02T17:57:47.393Z,3.57
2022-10-02T18:00:21.211Z,3.93
2022-10-02T18:03:18.172Z,4.07
2022-10-02T18:05:54.461Z,4.10
2022-10-02T18:08:47.394Z,4.80
2022-10-02T18:11:31.380Z,4.33
2022-10-02T18:14:11.782Z,5.67
2022-10-02T18:16:55.174Z,4.63
2022-10-02T18:19:32.957Z,4.43
2022-10-02T18:22:20.492Z,4.57
2022-10-02T18:25:25.162Z,4.90
2022-10-02T18:28:11.899Z,5.10
2022-10-02T18:30:50.219Z,4.37
2022-10-02T18:33:42.447Z,4.23
2022-10-02T18:36:23.648Z,4.83
2022-10-02T18:39:02.405Z,5.20
2022-10-02T18:41:53.763Z,4.23
2022-10-02T18:44:45.039Z,4.30
2022-10-02T18:47:27.481Z,5.37
2022-10-02T18:50:10.842Z,6.60
2022-10-02T18:52:57.218Z,6.33
2022-10-02T18:55:38.872Z,5.40
2022-10-02T18:58:21.500Z,5.47
2022-10-02T19:01:05.210Z,5.00
2022-10-02T19:03:44.351Z,5.10
2022-10-02T19:06:17.431Z,6.87
2022-10-02T19:09:04.763Z,6.00
2022-10-02T19:11:36.051Z,4.97
2022-10-02T19:14:15.002Z,5.83
2022-10-02T19:16:58.267Z,6.90
2022-10-02T19:19:29.191Z,5.47
2022-10-02T19:22:01.259Z,4.90
2022-10-02T19:24:32.732Z,5.27
2022-10-02T19:27:04.845Z,4.97
2022-10-02T19:29:37.570Z,5.07
2022-10-02T19:32:14.399Z,5.60
2022-10-02T19:34:44.918Z,4.60
2022-10-02T19:37:17.506Z,5.70
2022-10-02T19:39:52.128Z,4.90
2022-10-02T19:42:25.295Z,4.27
2022-10-02T19:44:57.731Z,4.27
2022-10-02T19:47:30.242Z,4.03
2022-10-02T19:50:02.380Z,4.60
2022-10-02T19:52:52.400Z,4.17
2022-10-02T19:55:27.313Z,3.87
2022-10-02T19:58:00.480Z,4.10
2022-10-02T20:00:30.014Z,4.10
2022-10-02T20:03:00.774Z,4.33
2022-10-02T20:05:35.142Z,4.03
2022-10-02T20:08:12.971Z,4.43
2022-10-02T20:10:47.428Z,4.73
2022-10-02T20:13:20.551Z,3.63
2022-10-02T20:16:12.434Z,4.43
2022-10-02T20:18:44.349Z,3.87
2022-10-02T20:21:16.945Z,3.03
2022-10-02T20:23:57.788Z,3.13
2022-10-02T20:26:33.004Z,3.53
2022-10-02T20:29:05.107Z,3.77
2022-10-02T20:31:45.433Z,4.10
2022-10-02T20:34:23.821Z,4.07
2022-10-02T20:37:04.979Z,4.33
2022-10-02T20:39:38.905Z,3.50
2022-10-02T20:42:15.031Z,4.33
2022-10-02T20:44:44.299Z,3.13
2022-10-02T20:47:57.655Z,3.33
2022-10-02T21:03:11.180Z,4.07
2022-10-02T21:06:15.499Z,3.27
2022-10-02T21:09:13.256Z,3.27
2022-10-02T21:11:54.436Z,3.60
2022-10-02T21:14:57.164Z,2.80
2022-10-02T21:18:00.811Z,2.30
2022-10-02T21:21:01.974Z,3.73
2022-10-02T21:24:01.637Z,3.50
2022-10-02T21:27:13.448Z,4.43
2022-10-02T21:30:03.043Z,3.93
2022-10-02T21:32:41.305Z,3.23
2022-10-02T21:35:16.988Z,2.80
2022-10-02T21:38:06.204Z,2.63
2022-10-02T21:41:07.345Z,2.30
2022-10-02T21:44:08.162Z,2.50
2022-10-02T21:47:01.269Z,3.03
2022-10-02T21:50:16.402Z,2.70
2022-10-02T21:53:16.838Z,2.80
2022-10-02T21:56:22.887Z,2.57
2022-10-02T21:59:12.872Z,2.93
2022-10-02T22:02:11.586Z,2.03
2022-10-02T22:05:07.058Z,2.73
2022-10-02T22:07:39.668Z,2.17
2022-10-02T22:10:17.640Z,2.60
2022-10-02T22:12:57.577Z,1.70
2022-10-02T22:15:37.690Z,2.23
2022-10-02T22:18:14.782Z,1.80
2022-10-02T22:21:09.924Z,2.30
2022-10-02T22:24:02.449Z,2.10
2022-10-02T22:26:45.578Z,1.90
2022-10-02T22:29:19.693Z,2.70
2022-10-02T22:32:17.602Z,2.17
2022-10-02T22:34:56.567Z,2.30
2022-10-02T22:37:41.815Z,1.90
2022-10-02T22:40:15.458Z,2.50
2022-10-02T22:42:49.913Z,2.27
2022-10-02T22:45:21.911Z,1.90
2022-10-02T22:48:00.076Z,2.40
2022-10-02T22:50:33.836Z,2.10
2022-10-02T22:53:12.711Z,2.90
2022-10-02T22:55:49.851Z,2.53
2022-10-02T22:58:24.700Z,2.20
2022-10-02T23:01:02.284Z,2.10
2022-10-02T23:03:37.914Z,2.80
2022-10-02T23:06:14.445Z,2.20
2022-10-02T23:08:50.027Z,2.30
2022-10-02T23:11:23.253Z,2.17
2022-10-02T23:13:57.954Z,1.63
2022-10-02T23:16:35.463Z,2.40
2022-10-02T23:19:10.429Z,2.03
2022-10-02T23:21:47.740Z,2.30
2022-10-02T23:24:23.544Z,2.93
2022-10-02T23:26:54.994Z,2.40
2022-10-02T23:29:35.856Z,2.57
2022-10-02T23:32:14.624Z,2.20
2022-10-02T23:34:51.637Z,2.53
2022-10-02T23:37:25.311Z,2.17
2022-10-02T23:40:04.154Z,2.20
2022-10-02T23:42:39.567Z,2.77
2022-10-02T23:45:20.458Z,3.20
2022-10-02T23:48:03.679Z,3.07
2022-10-02T23:50:44.458Z,2.27
2022-10-02T23:53:38.193Z,2.60
2022-10-02T23:56:28.479Z,2.80
2022-10-02T23:59:25.781Z,2.80
